sensor_id;sensor_type;location;lat;lon;timestamp;noise_LAeq;noise_LA_min;noise_LA_max;noise_LA01;noise_LA95
46393;Laerm;32099;53.588;10.176;2023-03-01T00:01:28;34.27;32.18;37.84;;
46393;Laerm;32099;53.588;10.176;2023-03-01T00:03:54;34.37;32.25;37.98;;
46393;Laerm;32099;53.588;10.176;2023-03-01T00:06:20;35.57;32.15;46.18;;
46393;Laerm;32099;53.588;10.176;2023-03-01T00:08:46;34.94;32.32;41.34;;
46393;Laerm;32099;53.588;10.176;2023-03-01T00:13:38;37.73;32.79;51.38;;
46393;Laerm;32099;53.588;10.176;2023-03-01T00:16:06;35.53;32.27;45.89;;
46393;Laerm;32099;53.588;10.176;2023-03-01T00:18:31;34.80;32.08;42.26;;
46393;Laerm;32099;53.588;10.176;2023-03-01T00:20:57;34.20;32.13;38.28;;
46393;Laerm;32099;53.588;10.176;2023-03-01T00:23:23;35.82;32.25;41.54;;
46393;Laerm;32099;53.588;10.176;2023-03-01T00:25:49;35.37;33.12;38.71;;
46393;Laerm;32099;53.588;10.176;2023-03-01T00:28:14;34.41;32.01;37.07;;
46393;Laerm;32099;53.588;10.176;2023-03-01T00:30:40;34.40;31.60;44.95;;
46393;Laerm;32099;53.588;10.176;2023-03-01T00:33:05;33.44;31.42;35.30;;
46393;Laerm;32099;53.588;10.176;2023-03-01T00:35:32;33.48;31.48;37.57;;
46393;Laerm;32099;53.588;10.176;2023-03-01T00:37:58;33.34;31.64;35.87;;
46393;Laerm;32099;53.588;10.176;2023-03-01T00:40:32;37.02;31.21;61.58;;
46393;Laerm;32099;53.588;10.176;2023-03-01T00:42:58;35.30;32.37;42.71;;
46393;Laerm;32099;53.588;10.176;2023-03-01T00:45:24;36.00;31.87;50.52;;
46393;Laerm;32099;53.588;10.176;2023-03-01T00:47:50;36.98;31.87;49.52;;
46393;Laerm;32099;53.588;10.176;2023-03-01T00:50:16;35.89;31.71;49.33;;
46393;Laerm;32099;53.588;10.176;2023-03-01T00:52:42;33.38;31.44;37.39;;
46393;Laerm;32099;53.588;10.176;2023-03-01T00:55:08;33.80;31.78;37.99;;
46393;Laerm;32099;53.588;10.176;2023-03-01T00:57:33;34.05;31.73;43.87;;
46393;Laerm;32099;53.588;10.176;2023-03-01T00:59:59;33.55;31.85;36.71;;
46393;Laerm;32099;53.588;10.176;2023-03-01T01:02:25;35.37;32.36;41.67;;
46393;Laerm;32099;53.588;10.176;2023-03-01T01:04:50;33.12;31.42;36.17;;
46393;Laerm;32099;53.588;10.176;2023-03-01T01:07:15;34.35;31.74;44.28;;
46393;Laerm;32099;53.588;10.176;2023-03-01T01:09:41;34.49;32.04;40.43;;
46393;Laerm;32099;53.588;10.176;2023-03-01T01:12:06;33.84;31.87;36.67;;
46393;Laerm;32099;53.588;10.176;2023-03-01T01:14:32;34.11;32.12;36.64;;
46393;Laerm;32099;53.588;10.176;2023-03-01T01:16:58;33.95;31.70;36.77;;
46393;Laerm;32099;53.588;10.176;2023-03-01T01:19:24;34.07;31.98;36.99;;
46393;Laerm;32099;53.588;10.176;2023-03-01T01:21:49;34.93;32.01;46.51;;
46393;Laerm;32099;53.588;10.176;2023-03-01T01:24:15;36.05;31.99;49.26;;
46393;Laerm;32099;53.588;10.176;2023-03-01T01:26:41;33.28;31.60;35.45;;
46393;Laerm;32099;53.588;10.176;2023-03-01T01:29:07;33.28;31.73;35.12;;
46393;Laerm;32099;53.588;10.176;2023-03-01T01:31:34;33.31;31.84;35.64;;
46393;Laerm;32099;53.588;10.176;2023-03-01T01:34:01;49.28;31.61;69.83;;
46393;Laerm;32099;53.588;10.176;2023-03-01T01:36:26;36.55;31.71;53.42;;
46393;Laerm;32099;53.588;10.176;2023-03-01T01:38:52;33.85;31.98;43.18;;
46393;Laerm;32099;53.588;10.176;2023-03-01T01:41:19;34.82;31.84;44.68;;
46393;Laerm;32099;53.588;10.176;2023-03-01T01:44:15;46.15;32.12;65.81;;
46393;Laerm;32099;53.588;10.176;2023-03-01T01:46:44;50.67;32.69;71.65;;
46393;Laerm;32099;53.588;10.176;2023-03-01T01:49:18;35.25;32.29;41.40;;
46393;Laerm;32099;53.588;10.176;2023-03-01T01:51:47;38.40;33.39;51.86;;
46393;Laerm;32099;53.588;10.176;2023-03-01T01:54:21;35.22;32.63;39.66;;
46393;Laerm;32099;53.588;10.176;2023-03-01T01:56:53;34.59;32.29;37.75;;
46393;Laerm;32099;53.588;10.176;2023-03-01T01:59:20;34.94;32.89;37.92;;
46393;Laerm;32099;53.588;10.176;2023-03-01T02:01:50;34.93;32.63;41.83;;
46393;Laerm;32099;53.588;10.176;2023-03-01T02:04:15;34.67;32.69;36.61;;
46393;Laerm;32099;53.588;10.176;2023-03-01T02:06:46;36.06;32.91;40.11;;
46393;Laerm;32099;53.588;10.176;2023-03-01T02:09:16;35.68;33.41;44.54;;
46393;Laerm;32099;53.588;10.176;2023-03-01T02:11:44;35.61;32.62;45.09;;
46393;Laerm;32099;53.588;10.176;2023-03-01T02:14:09;34.71;32.62;37.95;;
46393;Laerm;32099;53.588;10.176;2023-03-01T02:16:35;35.17;32.52;42.27;;
46393;Laerm;32099;53.588;10.176;2023-03-01T02:19:00;35.01;32.92;42.13;;
46393;Laerm;32099;53.588;10.176;2023-03-01T02:21:31;35.08;32.86;38.74;;
46393;Laerm;32099;53.588;10.176;2023-03-01T02:26:52;35.35;33.06;43.05;;
46393;Laerm;32099;53.588;10.176;2023-03-01T02:29:20;35.07;33.29;38.90;;
46393;Laerm;32099;53.588;10.176;2023-03-01T02:31:46;35.23;32.78;38.75;;
46393;Laerm;32099;53.588;10.176;2023-03-01T02:34:17;35.62;33.35;38.49;;
46393;Laerm;32099;53.588;10.176;2023-03-01T02:36:53;36.67;33.15;48.36;;
46393;Laerm;32099;53.588;10.176;2023-03-01T02:39:25;36.06;32.85;43.38;;
46393;Laerm;32099;53.588;10.176;2023-03-01T02:41:53;39.03;33.38;50.77;;
46393;Laerm;32099;53.588;10.176;2023-03-01T02:44:20;35.84;33.06;40.16;;
46393;Laerm;32099;53.588;10.176;2023-03-01T02:46:50;37.42;33.70;43.47;;
46393;Laerm;32099;53.588;10.176;2023-03-01T02:49:27;38.37;33.89;49.68;;
46393;Laerm;32099;53.588;10.176;2023-03-01T02:52:21;36.38;32.91;43.84;;
46393;Laerm;32099;53.588;10.176;2023-03-01T02:54:50;36.88;33.17;44.54;;
46393;Laerm;32099;53.588;10.176;2023-03-01T02:57:42;36.85;33.37;47.94;;
46393;Laerm;32099;53.588;10.176;2023-03-01T03:00:19;36.24;33.52;40.92;;
46393;Laerm;32099;53.588;10.176;2023-03-01T03:02:47;36.05;33.27;40.54;;
46393;Laerm;32099;53.588;10.176;2023-03-01T03:05:19;35.43;33.29;40.40;;
46393;Laerm;32099;53.588;10.176;2023-03-01T03:07:46;36.73;33.29;44.02;;
46393;Laerm;32099;53.588;10.176;2023-03-01T03:10:15;36.20;33.08;43.61;;
46393;Laerm;32099;53.588;10.176;2023-03-01T03:12:41;39.43;34.31;52.31;;
46393;Laerm;32099;53.588;10.176;2023-03-01T03:15:08;36.14;32.68;44.06;;
46393;Laerm;32099;53.588;10.176;2023-03-01T03:17:37;37.25;33.78;44.07;;
46393;Laerm;32099;53.588;10.176;2023-03-01T03:20:04;38.27;33.86;49.86;;
46393;Laerm;32099;53.588;10.176;2023-03-01T03:22:31;38.63;34.34;47.07;;
46393;Laerm;32099;53.588;10.176;2023-03-01T03:24:59;38.70;33.73;48.65;;
46393;Laerm;32099;53.588;10.176;2023-03-01T03:27:24;37.16;34.08;42.77;;
46393;Laerm;32099;53.588;10.176;2023-03-01T03:29:49;36.76;33.83;40.43;;
46393;Laerm;32099;53.588;10.176;2023-03-01T03:32:14;37.83;34.36;46.68;;
46393;Laerm;32099;53.588;10.176;2023-03-01T03:34:40;37.50;34.53;40.82;;
46393;Laerm;32099;53.588;10.176;2023-03-01T03:37:05;50.25;34.80;70.02;;
46393;Laerm;32099;53.588;10.176;2023-03-01T03:39:50;39.56;34.80;50.40;;
46393;Laerm;32099;53.588;10.176;2023-03-01T03:42:20;38.62;34.25;49.23;;
46393;Laerm;32099;53.588;10.176;2023-03-01T03:44:45;38.41;34.31;50.11;;
46393;Laerm;32099;53.588;10.176;2023-03-01T03:47:10;38.66;34.74;50.01;;
46393;Laerm;32099;53.588;10.176;2023-03-01T03:49:36;38.34;34.79;46.18;;
46393;Laerm;32099;53.588;10.176;2023-03-01T03:52:01;38.91;34.74;48.25;;
46393;Laerm;32099;53.588;10.176;2023-03-01T03:54:26;38.55;34.27;47.95;;
46393;Laerm;32099;53.588;10.176;2023-03-01T03:56:52;37.61;33.76;46.02;;
46393;Laerm;32099;53.588;10.176;2023-03-01T03:59:17;39.61;35.20;47.90;;
46393;Laerm;32099;53.588;10.176;2023-03-01T04:01:42;41.57;35.28;48.33;;
46393;Laerm;32099;53.588;10.176;2023-03-01T04:04:09;40.23;34.81;51.51;;
46393;Laerm;32099;53.588;10.176;2023-03-01T04:06:34;38.92;34.40;49.06;;
46393;Laerm;32099;53.588;10.176;2023-03-01T04:09:00;41.08;34.94;57.01;;
46393;Laerm;32099;53.588;10.176;2023-03-01T04:11:27;40.79;35.32;48.86;;
46393;Laerm;32099;53.588;10.176;2023-03-01T04:13:55;40.74;35.09;50.56;;
46393;Laerm;32099;53.588;10.176;2023-03-01T04:16:21;38.93;35.01;46.33;;
46393;Laerm;32099;53.588;10.176;2023-03-01T04:18:47;38.23;34.38;45.14;;
46393;Laerm;32099;53.588;10.176;2023-03-01T04:21:12;39.38;35.08;49.84;;
46393;Laerm;32099;53.588;10.176;2023-03-01T04:23:38;39.89;35.17;50.10;;
46393;Laerm;32099;53.588;10.176;2023-03-01T04:26:04;50.79;34.94;68.72;;
46393;Laerm;32099;53.588;10.176;2023-03-01T04:28:33;37.59;34.17;48.91;;
46393;Laerm;32099;53.588;10.176;2023-03-01T04:31:06;40.20;34.81;49.39;;
46393;Laerm;32099;53.588;10.176;2023-03-01T04:33:50;53.83;34.15;73.34;;
46393;Laerm;32099;53.588;10.176;2023-03-01T04:36:21;40.42;35.53;47.43;;
46393;Laerm;32099;53.588;10.176;2023-03-01T04:38:47;40.69;35.41;49.20;;
46393;Laerm;32099;53.588;10.176;2023-03-01T04:41:14;40.91;35.55;48.71;;
46393;Laerm;32099;53.588;10.176;2023-03-01T04:43:40;53.26;35.38;69.49;;
46393;Laerm;32099;53.588;10.176;2023-03-01T04:46:08;40.85;34.99;48.71;;
46393;Laerm;32099;53.588;10.176;2023-03-01T04:48:36;51.56;35.72;71.75;;
46393;Laerm;32099;53.588;10.176;2023-03-01T04:51:02;41.81;36.27;63.65;;
46393;Laerm;32099;53.588;10.176;2023-03-01T04:53:28;40.19;35.85;48.29;;
46393;Laerm;32099;53.588;10.176;2023-03-01T04:55:54;48.95;35.87;68.97;;
46393;Laerm;32099;53.588;10.176;2023-03-01T04:58:22;41.19;36.27;52.76;;
46393;Laerm;32099;53.588;10.176;2023-03-01T05:00:47;50.11;35.98;69.29;;
46393;Laerm;32099;53.588;10.176;2023-03-01T05:03:13;47.40;35.97;69.17;;
46393;Laerm;32099;53.588;10.176;2023-03-01T05:05:44;48.50;36.68;65.38;;
46393;Laerm;32099;53.588;10.176;2023-03-01T05:08:10;52.88;36.92;75.86;;
46393;Laerm;32099;53.588;10.176;2023-03-01T05:10:49;60.30;39.84;76.51;;
46393;Laerm;32099;53.588;10.176;2023-03-01T05:13:16;46.46;38.34;58.43;;
46393;Laerm;32099;53.588;10.176;2023-03-01T05:15:56;51.25;38.41;70.03;;
46393;Laerm;32099;53.588;10.176;2023-03-01T05:18:26;53.45;38.75;72.26;;
46393;Laerm;32099;53.588;10.176;2023-03-01T05:20:55;44.02;37.85;61.27;;
46393;Laerm;32099;53.588;10.176;2023-03-01T05:23:24;43.65;38.01;58.69;;
46393;Laerm;32099;53.588;10.176;2023-03-01T05:25:49;44.82;38.13;54.19;;
46393;Laerm;32099;53.588;10.176;2023-03-01T05:28:19;49.25;39.59;63.98;;
46393;Laerm;32099;53.588;10.176;2023-03-01T05:30:45;51.68;38.94;69.09;;
46393;Laerm;32099;53.588;10.176;2023-03-01T05:33:10;45.89;38.82;60.67;;
46393;Laerm;32099;53.588;10.176;2023-03-01T05:35:39;50.40;38.95;69.73;;
46393;Laerm;32099;53.588;10.176;2023-03-01T05:38:05;54.69;39.65;71.23;;
46393;Laerm;32099;53.588;10.176;2023-03-01T05:40:33;44.29;39.93;57.32;;
46393;Laerm;32099;53.588;10.176;2023-03-01T05:42:59;42.99;38.70;62.34;;
46393;Laerm;32099;53.588;10.176;2023-03-01T05:45:26;48.54;39.68;60.75;;
46393;Laerm;32099;53.588;10.176;2023-03-01T05:47:52;53.00;40.86;70.35;;
46393;Laerm;32099;53.588;10.176;2023-03-01T05:50:26;47.48;39.50;62.15;;
46393;Laerm;32099;53.588;10.176;2023-03-01T05:52:58;49.60;38.85;64.30;;
46393;Laerm;32099;53.588;10.176;2023-03-01T05:55:24;52.49;39.78;71.69;;
46393;Laerm;32099;53.588;10.176;2023-03-01T05:57:49;55.29;40.14;71.69;;
46393;Laerm;32099;53.588;10.176;2023-03-01T06:00:17;58.48;39.57;75.19;;
46393;Laerm;32099;53.588;10.176;2023-03-01T06:02:43;52.23;39.17;71.53;;
46393;Laerm;32099;53.588;10.176;2023-03-01T06:05:10;43.46;38.79;53.97;;
46393;Laerm;32099;53.588;10.176;2023-03-01T06:07:35;51.31;40.35;71.70;;
46393;Laerm;32099;53.588;10.176;2023-03-01T06:10:02;54.09;39.70;70.66;;
46393;Laerm;32099;53.588;10.176;2023-03-01T06:12:35;51.40;39.68;69.14;;
46393;Laerm;32099;53.588;10.176;2023-03-01T06:15:00;55.98;40.66;73.22;;
46393;Laerm;32099;53.588;10.176;2023-03-01T06:17:29;58.40;40.62;87.43;;
46393;Laerm;32099;53.588;10.176;2023-03-01T06:19:54;54.86;40.97;68.50;;
46393;Laerm;32099;53.588;10.176;2023-03-01T06:22:20;54.67;40.54;72.60;;
46393;Laerm;32099;53.588;10.176;2023-03-01T06:24:45;43.35;39.50;51.27;;
46393;Laerm;32099;53.588;10.176;2023-03-01T06:27:10;54.83;38.88;74.20;;
46393;Laerm;32099;53.588;10.176;2023-03-01T06:29:36;57.37;39.45;73.13;;
46393;Laerm;32099;53.588;10.176;2023-03-01T06:32:02;54.70;39.41;70.77;;
46393;Laerm;32099;53.588;10.176;2023-03-01T06:34:27;47.39;39.28;68.65;;
46393;Laerm;32099;53.588;10.176;2023-03-01T06:36:52;55.91;40.14;73.11;;
46393;Laerm;32099;53.588;10.176;2023-03-01T06:39:18;51.83;39.28;67.44;;
46393;Laerm;32099;53.588;10.176;2023-03-01T06:41:44;56.82;39.57;71.69;;
46393;Laerm;32099;53.588;10.176;2023-03-01T06:44:09;54.34;39.28;69.69;;
46393;Laerm;32099;53.588;10.176;2023-03-01T06:46:35;56.12;39.41;71.80;;
46393;Laerm;32099;53.588;10.176;2023-03-01T06:49:00;61.30;38.73;78.77;;
46393;Laerm;32099;53.588;10.176;2023-03-01T06:51:25;43.64;38.97;58.75;;
46393;Laerm;32099;53.588;10.176;2023-03-01T06:53:51;45.02;38.23;62.46;;
46393;Laerm;32099;53.588;10.176;2023-03-01T06:56:16;50.10;38.58;69.27;;
46393;Laerm;32099;53.588;10.176;2023-03-01T06:58:41;55.91;39.20;71.76;;
46393;Laerm;32099;53.588;10.176;2023-03-01T07:01:08;59.01;39.27;83.80;;
46393;Laerm;32099;53.588;10.176;2023-03-01T07:03:33;54.82;39.88;69.48;;
46393;Laerm;32099;53.588;10.176;2023-03-01T07:05:58;42.99;38.10;61.55;;
46393;Laerm;32099;53.588;10.176;2023-03-01T07:08:24;53.21;38.03;68.45;;
46393;Laerm;32099;53.588;10.176;2023-03-01T07:10:55;46.85;38.07;66.92;;
46393;Laerm;32099;53.588;10.176;2023-03-01T07:13:20;55.86;39.72;72.90;;
46393;Laerm;32099;53.588;10.176;2023-03-01T07:15:45;57.88;39.56;76.04;;
46393;Laerm;32099;53.588;10.176;2023-03-01T07:18:11;46.44;38.90;63.74;;
46393;Laerm;32099;53.588;10.176;2023-03-01T07:20:36;52.22;38.79;66.21;;
46393;Laerm;32099;53.588;10.176;2023-03-01T07:23:01;51.08;39.01;67.21;;
46393;Laerm;32099;53.588;10.176;2023-03-01T07:25:26;54.44;39.71;73.64;;
46393;Laerm;32099;53.588;10.176;2023-03-01T07:27:52;57.21;39.43;73.42;;
46393;Laerm;32099;53.588;10.176;2023-03-01T07:30:18;55.50;39.41;72.59;;
46393;Laerm;32099;53.588;10.176;2023-03-01T07:32:44;47.87;38.95;58.92;;
46393;Laerm;32099;53.588;10.176;2023-03-01T07:35:10;55.44;38.05;70.28;;
46393;Laerm;32099;53.588;10.176;2023-03-01T07:37:35;57.45;39.09;74.63;;
46393;Laerm;32099;53.588;10.176;2023-03-01T07:40:01;51.06;38.82;68.16;;
46393;Laerm;32099;53.588;10.176;2023-03-01T07:42:27;57.16;38.47;75.28;;
46393;Laerm;32099;53.588;10.176;2023-03-01T07:44:52;56.80;39.04;75.25;;
46393;Laerm;32099;53.588;10.176;2023-03-01T07:47:17;57.38;38.67;75.81;;
46393;Laerm;32099;53.588;10.176;2023-03-01T07:49:43;58.43;39.65;77.47;;
46393;Laerm;32099;53.588;10.176;2023-03-01T07:52:10;55.53;38.91;74.44;;
46393;Laerm;32099;53.588;10.176;2023-03-01T07:54:36;51.67;38.61;69.86;;
46393;Laerm;32099;53.588;10.176;2023-03-01T07:57:01;52.86;37.97;70.02;;
46393;Laerm;32099;53.588;10.176;2023-03-01T07:59:26;52.74;38.26;71.99;;
46393;Laerm;32099;53.588;10.176;2023-03-01T08:01:55;42.82;38.47;60.97;;
46393;Laerm;32099;53.588;10.176;2023-03-01T08:04:20;56.25;38.03;73.99;;
46393;Laerm;32099;53.588;10.176;2023-03-01T08:06:46;45.50;37.48;65.66;;
46393;Laerm;32099;53.588;10.176;2023-03-01T08:09:11;53.15;37.33;71.48;;
46393;Laerm;32099;53.588;10.176;2023-03-01T08:11:36;51.27;36.51;70.12;;
46393;Laerm;32099;53.588;10.176;2023-03-01T08:14:02;49.19;36.66;65.78;;
46393;Laerm;32099;53.588;10.176;2023-03-01T08:16:27;57.81;36.37;72.07;;
46393;Laerm;32099;53.588;10.176;2023-03-01T08:18:53;57.10;37.66;74.25;;
46393;Laerm;32099;53.588;10.176;2023-03-01T08:21:20;57.55;38.22;72.67;;
46393;Laerm;32099;53.588;10.176;2023-03-01T08:23:46;56.00;36.49;71.35;;
46393;Laerm;32099;53.588;10.176;2023-03-01T08:26:15;41.70;35.36;57.24;;
46393;Laerm;32099;53.588;10.176;2023-03-01T08:28:41;55.01;35.90;70.54;;
46393;Laerm;32099;53.588;10.176;2023-03-01T08:31:30;47.03;35.05;66.13;;
46393;Laerm;32099;53.588;10.176;2023-03-01T08:33:58;53.39;34.56;70.23;;
46393;Laerm;32099;53.588;10.176;2023-03-01T08:36:26;50.33;35.35;68.12;;
46393;Laerm;32099;53.588;10.176;2023-03-01T08:38:53;54.01;34.92;72.25;;
46393;Laerm;32099;53.588;10.176;2023-03-01T08:41:18;38.48;33.82;52.71;;
46393;Laerm;32099;53.588;10.176;2023-03-01T08:43:44;50.99;34.51;69.89;;
46393;Laerm;32099;53.588;10.176;2023-03-01T08:46:10;48.98;33.41;66.20;;
46393;Laerm;32099;53.588;10.176;2023-03-01T08:48:35;52.63;34.00;67.44;;
46393;Laerm;32099;53.588;10.176;2023-03-01T08:51:12;49.77;33.59;66.77;;
46393;Laerm;32099;53.588;10.176;2023-03-01T08:53:38;43.18;33.40;64.94;;
46393;Laerm;32099;53.588;10.176;2023-03-01T08:56:04;56.51;34.16;72.19;;
46393;Laerm;32099;53.588;10.176;2023-03-01T08:58:30;44.66;33.47;63.74;;
46393;Laerm;32099;53.588;10.176;2023-03-01T09:00:55;53.79;32.63;70.18;;
46393;Laerm;32099;53.588;10.176;2023-03-01T09:03:24;56.61;33.78;75.04;;
46393;Laerm;32099;53.588;10.176;2023-03-01T09:05:51;49.33;33.94;68.54;;
46393;Laerm;32099;53.588;10.176;2023-03-01T09:08:17;55.91;32.37;71.40;;
46393;Laerm;32099;53.588;10.176;2023-03-01T09:10:42;46.54;32.19;62.48;;
46393;Laerm;32099;53.588;10.176;2023-03-01T09:13:08;49.61;32.49;68.00;;
46393;Laerm;32099;53.588;10.176;2023-03-01T09:15:34;39.97;31.29;56.15;;
46393;Laerm;32099;53.588;10.176;2023-03-01T09:18:01;47.69;31.54;62.46;;
46393;Laerm;32099;53.588;10.176;2023-03-01T09:20:26;52.23;32.86;71.48;;
46393;Laerm;32099;53.588;10.176;2023-03-01T09:22:51;48.81;33.00;64.98;;
46393;Laerm;32099;53.588;10.176;2023-03-01T09:25:17;45.42;31.83;62.43;;
46393;Laerm;32099;53.588;10.176;2023-03-01T09:27:42;46.54;32.38;63.98;;
46393;Laerm;32099;53.588;10.176;2023-03-01T09:30:08;42.09;32.24;55.11;;
46393;Laerm;32099;53.588;10.176;2023-03-01T09:32:33;56.05;32.48;73.32;;
46393;Laerm;32099;53.588;10.176;2023-03-01T09:34:59;45.78;32.34;64.70;;
46393;Laerm;32099;53.588;10.176;2023-03-01T09:37:33;40.93;31.00;59.98;;
46393;Laerm;32099;53.588;10.176;2023-03-01T09:39:59;39.15;31.23;51.29;;
46393;Laerm;32099;53.588;10.176;2023-03-01T09:42:25;42.44;31.33;58.23;;
46393;Laerm;32099;53.588;10.176;2023-03-01T09:45:02;44.20;31.85;62.86;;
46393;Laerm;32099;53.588;10.176;2023-03-01T09:47:31;51.04;30.72;70.52;;
46393;Laerm;32099;53.588;10.176;2023-03-01T09:50:17;51.32;30.19;72.69;;
46393;Laerm;32099;53.588;10.176;2023-03-01T09:52:49;50.61;30.38;68.22;;
46393;Laerm;32099;53.588;10.176;2023-03-01T09:55:21;53.77;30.98;71.27;;
46393;Laerm;32099;53.588;10.176;2023-03-01T09:57:53;49.34;31.60;67.96;;
46393;Laerm;32099;53.588;10.176;2023-03-01T10:00:26;36.77;29.99;55.95;;
46393;Laerm;32099;53.588;10.176;2023-03-01T10:03:11;47.24;29.98;64.68;;
46393;Laerm;32099;53.588;10.176;2023-03-01T10:08:43;48.99;31.08;66.82;;
46393;Laerm;32099;53.588;10.176;2023-03-01T10:11:19;49.69;31.24;68.42;;
46393;Laerm;32099;53.588;10.176;2023-03-01T10:16:37;51.58;32.51;71.07;;
46393;Laerm;32099;53.588;10.176;2023-03-01T10:19:05;50.37;29.81;66.02;;
46393;Laerm;32099;53.588;10.176;2023-03-01T10:21:37;52.21;29.58;69.26;;
46393;Laerm;32099;53.588;10.176;2023-03-01T10:24:13;48.24;28.48;67.02;;
46393;Laerm;32099;53.588;10.176;2023-03-01T10:29:07;52.44;29.44;68.85;;
46393;Laerm;32099;53.588;10.176;2023-03-01T10:31:48;51.33;29.43;69.57;;
46393;Laerm;32099;53.588;10.176;2023-03-01T10:34:20;45.57;29.84;66.30;;
46393;Laerm;32099;53.588;10.176;2023-03-01T10:36:51;50.25;29.98;66.67;;
46393;Laerm;32099;53.588;10.176;2023-03-01T10:39:23;53.94;30.67;68.40;;
46393;Laerm;32099;53.588;10.176;2023-03-01T10:41:58;35.44;29.20;55.10;;
46393;Laerm;32099;53.588;10.176;2023-03-01T10:44:47;35.94;29.44;47.15;;
46393;Laerm;32099;53.588;10.176;2023-03-01T10:47:27;50.69;30.26;68.35;;
46393;Laerm;32099;53.588;10.176;2023-03-01T10:50:08;54.78;29.99;72.30;;
46393;Laerm;32099;53.588;10.176;2023-03-01T10:52:56;50.36;30.36;67.26;;
46393;Laerm;32099;53.588;10.176;2023-03-01T10:55:35;34.86;30.11;45.49;;
46393;Laerm;32099;53.588;10.176;2023-03-01T11:03:14;35.98;29.19;49.45;;
46393;Laerm;32099;53.588;10.176;2023-03-01T11:06:19;50.82;29.51;70.85;;
46393;Laerm;32099;53.588;10.176;2023-03-01T11:08:48;39.38;29.97;53.67;;
46393;Laerm;32099;53.588;10.176;2023-03-01T11:11:33;42.59;29.65;53.41;;
46393;Laerm;32099;53.588;10.176;2023-03-01T11:14:07;46.37;30.62;62.79;;
46393;Laerm;32099;53.588;10.176;2023-03-01T11:16:40;52.64;30.15;70.70;;
46393;Laerm;32099;53.588;10.176;2023-03-01T11:21:37;36.63;29.54;48.61;;
46393;Laerm;32099;53.588;10.176;2023-03-01T11:24:06;35.63;29.60;46.75;;
46393;Laerm;32099;53.588;10.176;2023-03-01T11:26:39;51.74;29.69;72.29;;
46393;Laerm;32099;53.588;10.176;2023-03-01T11:29:15;49.74;28.86;69.23;;
46393;Laerm;32099;53.588;10.176;2023-03-01T11:31:43;52.25;29.30;69.70;;
46393;Laerm;32099;53.588;10.176;2023-03-01T11:34:17;36.80;29.42;51.36;;
46393;Laerm;32099;53.588;10.176;2023-03-01T11:36:52;51.60;32.32;67.90;;
46393;Laerm;32099;53.588;10.176;2023-03-01T11:39:43;54.80;30.75;70.02;;
46393;Laerm;32099;53.588;10.176;2023-03-01T11:42:17;46.82;30.19;65.25;;
46393;Laerm;32099;53.588;10.176;2023-03-01T11:44:48;37.85;30.28;49.50;;
46393;Laerm;32099;53.588;10.176;2023-03-01T11:47:33;49.82;30.68;65.53;;
46393;Laerm;32099;53.588;10.176;2023-03-01T11:50:26;55.13;29.29;74.70;;
46393;Laerm;32099;53.588;10.176;2023-03-01T11:55:48;51.31;29.53;65.69;;
46393;Laerm;32099;53.588;10.176;2023-03-01T12:06:28;52.04;29.75;72.57;;
46393;Laerm;32099;53.588;10.176;2023-03-01T12:17:11;53.45;30.34;72.58;;
46393;Laerm;32099;53.588;10.176;2023-03-01T12:23:34;47.07;29.63;67.81;;
46393;Laerm;32099;53.588;10.176;2023-03-01T12:29:18;50.68;29.15;68.42;;
46393;Laerm;32099;53.588;10.176;2023-03-01T12:34:46;50.43;29.76;66.34;;
46393;Laerm;32099;53.588;10.176;2023-03-01T12:37:23;53.49;30.62;68.78;;
46393;Laerm;32099;53.588;10.176;2023-03-01T12:50:49;49.27;32.32;69.34;;
46393;Laerm;32099;53.588;10.176;2023-03-01T12:53:28;47.44;30.30;64.77;;
46393;Laerm;32099;53.588;10.176;2023-03-01T12:55:59;36.09;29.04;49.18;;
46393;Laerm;32099;53.588;10.176;2023-03-01T12:58:58;56.98;30.10;74.69;;
46393;Laerm;32099;53.588;10.176;2023-03-01T13:01:49;47.65;30.62;65.47;;
46393;Laerm;32099;53.588;10.176;2023-03-01T13:05:01;35.66;29.40;50.46;;
46393;Laerm;32099;53.588;10.176;2023-03-01T13:07:30;48.20;29.92;65.55;;
46393;Laerm;32099;53.588;10.176;2023-03-01T13:17:53;44.30;29.58;62.09;;
46393;Laerm;32099;53.588;10.176;2023-03-01T13:20:21;52.55;30.93;66.95;;
46393;Laerm;32099;53.588;10.176;2023-03-01T13:23:00;45.85;31.74;61.54;;
46393;Laerm;32099;53.588;10.176;2023-03-01T13:25:26;48.44;31.34;71.27;;
46393;Laerm;32099;53.588;10.176;2023-03-01T13:28:35;48.74;30.18;71.78;;
46393;Laerm;32099;53.588;10.176;2023-03-01T13:31:03;51.88;30.24;67.15;;
46393;Laerm;32099;53.588;10.176;2023-03-01T13:35:56;46.90;30.13;65.32;;
46393;Laerm;32099;53.588;10.176;2023-03-01T13:41:08;49.25;31.73;61.80;;
46393;Laerm;32099;53.588;10.176;2023-03-01T13:43:36;47.32;30.61;64.51;;
46393;Laerm;32099;53.588;10.176;2023-03-01T13:46:17;50.38;30.43;67.17;;
46393;Laerm;32099;53.588;10.176;2023-03-01T13:48:45;40.91;29.91;56.31;;
46393;Laerm;32099;53.588;10.176;2023-03-01T13:51:12;35.18;30.09;42.71;;
46393;Laerm;32099;53.588;10.176;2023-03-01T13:53:43;48.87;31.56;66.90;;
46393;Laerm;32099;53.588;10.176;2023-03-01T13:56:19;35.97;29.44;51.28;;
46393;Laerm;32099;53.588;10.176;2023-03-01T13:58:56;45.48;29.85;62.68;;
46393;Laerm;32099;53.588;10.176;2023-03-01T14:01:30;43.19;29.85;73.66;;
46393;Laerm;32099;53.588;10.176;2023-03-01T14:03:55;48.13;29.86;74.52;;
46393;Laerm;32099;53.588;10.176;2023-03-01T14:06:26;51.09;31.35;66.95;;
46393;Laerm;32099;53.588;10.176;2023-03-01T14:09:22;46.60;29.34;67.97;;
46393;Laerm;32099;53.588;10.176;2023-03-01T14:19:35;53.98;32.73;71.99;;
46393;Laerm;32099;53.588;10.176;2023-03-01T14:22:06;56.70;31.43;73.39;;
46393;Laerm;32099;53.588;10.176;2023-03-01T14:24:41;52.89;29.24;68.73;;
46393;Laerm;32099;53.588;10.176;2023-03-01T14:27:11;44.78;29.05;73.45;;
46393;Laerm;32099;53.588;10.176;2023-03-01T14:29:38;47.54;28.19;64.24;;
46393;Laerm;32099;53.588;10.176;2023-03-01T14:32:22;46.23;29.14;69.28;;
46393;Laerm;32099;53.588;10.176;2023-03-01T14:34:50;50.77;31.05;70.69;;
46393;Laerm;32099;53.588;10.176;2023-03-01T14:37:25;54.76;31.47;72.51;;
46393;Laerm;32099;53.588;10.176;2023-03-01T14:39:52;45.78;29.79;65.88;;
46393;Laerm;32099;53.588;10.176;2023-03-01T14:42:19;48.59;30.30;64.00;;
46393;Laerm;32099;53.588;10.176;2023-03-01T14:44:48;42.01;30.11;66.52;;
46393;Laerm;32099;53.588;10.176;2023-03-01T14:47:40;51.79;30.68;71.71;;
46393;Laerm;32099;53.588;10.176;2023-03-01T14:50:19;51.81;31.34;67.26;;
46393;Laerm;32099;53.588;10.176;2023-03-01T14:52:48;48.70;30.16;65.16;;
46393;Laerm;32099;53.588;10.176;2023-03-01T14:55:18;52.93;30.59;66.46;;
46393;Laerm;32099;53.588;10.176;2023-03-01T14:57:46;38.64;30.11;54.99;;
46393;Laerm;32099;53.588;10.176;2023-03-01T15:00:18;45.37;30.99;62.24;;
46393;Laerm;32099;53.588;10.176;2023-03-01T15:02:47;46.47;30.09;63.96;;
46393;Laerm;32099;53.588;10.176;2023-03-01T15:05:14;45.12;30.51;62.17;;
46393;Laerm;32099;53.588;10.176;2023-03-01T15:07:42;52.41;31.35;67.70;;